sensor_id;sensor_type;location;lat;lon;timestamp;P1;durP1;ratioP1;P2;durP2;ratioP2
14754;SDS011;7469;50.906;6.952;2022-10-23T00:01:10;14.93;;;3.03;;
14754;SDS011;7469;50.906;6.952;2022-10-23T00:03:41;7.20;;;2.70;;
14754;SDS011;7469;50.906;6.952;2022-10-23T00:06:11;7.57;;;2.37;;
14754;SDS011;7469;50.906;6.952;2022-10-23T00:08:41;6.60;;;2.83;;
14754;SDS011;7469;50.906;6.952;2022-10-23T00:11:10;4.50;;;2.57;;
14754;SDS011;7469;50.906;6.952;2022-10-23T00:13:39;9.67;;;2.60;;
14754;SDS011;7469;50.906;6.952;2022-10-23T00:16:08;5.40;;;2.20;;
14754;SDS011;7469;50.906;6.952;2022-10-23T00:18:36;6.47;;;3.03;;
14754;SDS011;7469;50.906;6.952;2022-10-23T00:21:05;7.53;;;2.27;;
14754;SDS011;7469;50.906;6.952;2022-10-23T00:23:34;8.10;;;2.60;;
14754;SDS011;7469;50.906;6.952;2022-10-23T00:26:04;3.90;;;2.73;;
14754;SDS011;7469;50.906;6.952;2022-10-23T00:28:33;10.00;;;2.60;;
14754;SDS011;7469;50.906;6.952;2022-10-23T00:31:01;6.30;;;2.40;;
14754;SDS011;7469;50.906;6.952;2022-10-23T00:33:29;7.27;;;2.77;;
14754;SDS011;7469;50.906;6.952;2022-10-23T00:35:58;7.97;;;2.80;;
14754;SDS011;7469;50.906;6.952;2022-10-23T00:38:25;7.30;;;2.73;;
14754;SDS011;7469;50.906;6.952;2022-10-23T00:40:53;5.40;;;2.33;;
14754;SDS011;7469;50.906;6.952;2022-10-23T00:43:24;4.50;;;2.23;;
14754;SDS011;7469;50.906;6.952;2022-10-23T00:45:53;5.53;;;2.50;;
14754;SDS011;7469;50.906;6.952;2022-10-23T00:48:22;3.57;;;2.30;;
14754;SDS011;7469;50.906;6.952;2022-10-23T00:50:50;5.23;;;2.47;;
14754;SDS011;7469;50.906;6.952;2022-10-23T00:53:18;6.60;;;2.40;;
14754;SDS011;7469;50.906;6.952;2022-10-23T00:55:48;5.13;;;2.70;;
14754;SDS011;7469;50.906;6.952;2022-10-23T00:58:20;9.77;;;2.57;;
14754;SDS011;7469;50.906;6.952;2022-10-23T01:00:50;8.87;;;2.17;;
14754;SDS011;7469;50.906;6.952;2022-10-23T01:03:21;9.70;;;2.53;;
14754;SDS011;7469;50.906;6.952;2022-10-23T01:05:53;13.77;;;2.90;;
14754;SDS011;7469;50.906;6.952;2022-10-23T01:08:27;6.40;;;2.50;;
14754;SDS011;7469;50.906;6.952;2022-10-23T01:11:00;6.10;;;2.47;;
14754;SDS011;7469;50.906;6.952;2022-10-23T01:13:34;6.70;;;2.50;;
14754;SDS011;7469;50.906;6.952;2022-10-23T01:16:09;6.73;;;2.13;;
14754;SDS011;7469;50.906;6.952;2022-10-23T01:18:43;6.40;;;2.47;;
14754;SDS011;7469;50.906;6.952;2022-10-23T01:21:16;9.57;;;2.60;;
14754;SDS011;7469;50.906;6.952;2022-10-23T01:23:55;4.00;;;2.00;;
14754;SDS011;7469;50.906;6.952;2022-10-23T01:26:46;9.53;;;2.33;;
14754;SDS011;7469;50.906;6.952;2022-10-23T01:29:24;9.83;;;2.60;;
14754;SDS011;7469;50.906;6.952;2022-10-23T01:31:59;6.27;;;2.10;;
14754;SDS011;7469;50.906;6.952;2022-10-23T01:34:33;3.63;;;1.70;;
14754;SDS011;7469;50.906;6.952;2022-10-23T01:37:10;4.87;;;2.20;;
14754;SDS011;7469;50.906;6.952;2022-10-23T01:39:43;3.77;;;2.20;;
14754;SDS011;7469;50.906;6.952;2022-10-23T01:42:15;5.73;;;2.50;;
14754;SDS011;7469;50.906;6.952;2022-10-23T01:44:48;6.17;;;2.40;;
14754;SDS011;7469;50.906;6.952;2022-10-23T01:47:21;3.67;;;2.40;;
14754;SDS011;7469;50.906;6.952;2022-10-23T01:49:52;9.33;;;1.83;;
14754;SDS011;7469;50.906;6.952;2022-10-23T01:52:22;12.47;;;2.50;;
14754;SDS011;7469;50.906;6.952;2022-10-23T01:54:50;6.67;;;2.67;;
14754;SDS011;7469;50.906;6.952;2022-10-23T01:57:21;8.53;;;2.30;;
14754;SDS011;7469;50.906;6.952;2022-10-23T01:59:54;8.43;;;2.17;;
14754;SDS011;7469;50.906;6.952;2022-10-23T02:02:26;6.20;;;2.33;;
14754;SDS011;7469;50.906;6.952;2022-10-23T02:04:55;5.90;;;1.90;;
14754;SDS011;7469;50.906;6.952;2022-10-23T02:07:28;5.27;;;2.20;;
14754;SDS011;7469;50.906;6.952;2022-10-23T02:09:56;9.70;;;2.30;;
14754;SDS011;7469;50.906;6.952;2022-10-23T02:12:26;3.97;;;2.33;;
14754;SDS011;7469;50.906;6.952;2022-10-23T02:15:02;5.83;;;2.10;;
14754;SDS011;7469;50.906;6.952;2022-10-23T02:17:38;8.60;;;2.30;;
14754;SDS011;7469;50.906;6.952;2022-10-23T02:20:12;6.43;;;2.47;;
14754;SDS011;7469;50.906;6.952;2022-10-23T02:22:47;10.90;;;2.60;;
14754;SDS011;7469;50.906;6.952;2022-10-23T02:25:23;5.80;;;2.30;;
14754;SDS011;7469;50.906;6.952;2022-10-23T02:27:59;7.63;;;2.40;;
14754;SDS011;7469;50.906;6.952;2022-10-23T02:30:33;5.57;;;2.17;;
14754;SDS011;7469;50.906;6.952;2022-10-23T02:33:03;8.10;;;2.53;;
14754;SDS011;7469;50.906;6.952;2022-10-23T02:35:32;4.97;;;2.40;;
14754;SDS011;7469;50.906;6.952;2022-10-23T02:38:00;2.83;;;2.33;;
14754;SDS011;7469;50.906;6.952;2022-10-23T02:40:29;3.60;;;2.33;;
14754;SDS011;7469;50.906;6.952;2022-10-23T02:43:04;5.37;;;2.20;;
14754;SDS011;7469;50.906;6.952;2022-10-23T02:45:38;6.30;;;2.37;;
14754;SDS011;7469;50.906;6.952;2022-10-23T02:48:15;4.70;;;2.10;;
14754;SDS011;7469;50.906;6.952;2022-10-23T02:50:48;8.77;;;2.30;;
14754;SDS011;7469;50.906;6.952;2022-10-23T02:53:24;7.53;;;2.60;;
14754;SDS011;7469;50.906;6.952;2022-10-23T02:55:59;5.93;;;2.30;;
14754;SDS011;7469;50.906;6.952;2022-10-23T02:58:35;4.13;;;2.40;;
14754;SDS011;7469;50.906;6.952;2022-10-23T03:01:11;8.47;;;2.23;;
14754;SDS011;7469;50.906;6.952;2022-10-23T03:03:43;6.27;;;2.07;;
14754;SDS011;7469;50.906;6.952;2022-10-23T03:06:14;4.07;;;2.30;;
14754;SDS011;7469;50.906;6.952;2022-10-23T03:08:43;9.07;;;2.20;;
14754;SDS011;7469;50.906;6.952;2022-10-23T03:11:15;4.57;;;2.00;;
14754;SDS011;7469;50.906;6.952;2022-10-23T03:13:43;5.00;;;2.30;;
14754;SDS011;7469;50.906;6.952;2022-10-23T03:16:12;7.63;;;2.23;;
14754;SDS011;7469;50.906;6.952;2022-10-23T03:18:40;9.97;;;1.97;;
14754;SDS011;7469;50.906;6.952;2022-10-23T03:21:08;2.30;;;2.10;;
14754;SDS011;7469;50.906;6.952;2022-10-23T03:23:36;7.10;;;2.60;;
14754;SDS011;7469;50.906;6.952;2022-10-23T03:26:04;2.83;;;1.90;;
14754;SDS011;7469;50.906;6.952;2022-10-23T03:28:32;6.77;;;2.43;;
14754;SDS011;7469;50.906;6.952;2022-10-23T03:31:01;6.83;;;2.10;;
14754;SDS011;7469;50.906;6.952;2022-10-23T03:33:30;7.60;;;2.20;;
14754;SDS011;7469;50.906;6.952;2022-10-23T03:35:59;7.73;;;2.43;;
14754;SDS011;7469;50.906;6.952;2022-10-23T03:38:27;4.53;;;1.97;;
14754;SDS011;7469;50.906;6.952;2022-10-23T03:40:54;4.07;;;2.30;;
14754;SDS011;7469;50.906;6.952;2022-10-23T03:43:22;11.67;;;2.00;;
14754;SDS011;7469;50.906;6.952;2022-10-23T03:45:50;5.63;;;2.13;;
14754;SDS011;7469;50.906;6.952;2022-10-23T03:48:18;14.30;;;2.33;;
14754;SDS011;7469;50.906;6.952;2022-10-23T03:50:47;4.57;;;1.83;;
14754;SDS011;7469;50.906;6.952;2022-10-23T03:53:15;5.57;;;2.13;;
14754;SDS011;7469;50.906;6.952;2022-10-23T03:55:43;5.10;;;2.23;;
14754;SDS011;7469;50.906;6.952;2022-10-23T03:58:11;9.33;;;2.20;;
14754;SDS011;7469;50.906;6.952;2022-10-23T04:00:39;6.43;;;1.80;;
14754;SDS011;7469;50.906;6.952;2022-10-23T04:03:12;7.33;;;1.90;;
14754;SDS011;7469;50.906;6.952;2022-10-23T04:05:40;10.37;;;2.03;;
14754;SDS011;7469;50.906;6.952;2022-10-23T04:08:10;6.23;;;2.17;;
14754;SDS011;7469;50.906;6.952;2022-10-23T04:10:45;3.97;;;2.00;;
14754;SDS011;7469;50.906;6.952;2022-10-23T04:13:13;6.70;;;1.80;;
14754;SDS011;7469;50.906;6.952;2022-10-23T04:15:46;3.23;;;1.80;;
14754;SDS011;7469;50.906;6.952;2022-10-23T04:18:14;4.37;;;1.70;;
14754;SDS011;7469;50.906;6.952;2022-10-23T04:20:42;3.53;;;1.70;;
14754;SDS011;7469;50.906;6.952;2022-10-23T04:23:14;3.50;;;1.73;;
14754;SDS011;7469;50.906;6.952;2022-10-23T04:25:42;4.47;;;1.90;;
14754;SDS011;7469;50.906;6.952;2022-10-23T04:28:11;1.83;;;1.60;;
14754;SDS011;7469;50.906;6.952;2022-10-23T04:30:38;4.90;;;1.90;;
14754;SDS011;7469;50.906;6.952;2022-10-23T04:33:06;4.00;;;1.47;;
14754;SDS011;7469;50.906;6.952;2022-10-23T04:35:34;4.20;;;1.97;;
14754;SDS011;7469;50.906;6.952;2022-10-23T04:38:02;5.70;;;2.07;;
14754;SDS011;7469;50.906;6.952;2022-10-23T04:40:31;6.20;;;2.13;;
14754;SDS011;7469;50.906;6.952;2022-10-23T04:42:59;5.03;;;1.97;;
14754;SDS011;7469;50.906;6.952;2022-10-23T04:45:28;3.77;;;2.10;;
14754;SDS011;7469;50.906;6.952;2022-10-23T04:47:55;7.10;;;1.60;;
14754;SDS011;7469;50.906;6.952;2022-10-23T04:50:23;9.30;;;1.90;;
14754;SDS011;7469;50.906;6.952;2022-10-23T04:52:52;5.00;;;1.93;;
14754;SDS011;7469;50.906;6.952;2022-10-23T04:55:21;4.17;;;1.80;;
14754;SDS011;7469;50.906;6.952;2022-10-23T04:57:51;5.80;;;1.80;;
14754;SDS011;7469;50.906;6.952;2022-10-23T05:00:19;7.53;;;1.93;;
14754;SDS011;7469;50.906;6.952;2022-10-23T05:02:47;7.07;;;2.37;;
14754;SDS011;7469;50.906;6.952;2022-10-23T05:05:15;7.00;;;2.07;;
14754;SDS011;7469;50.906;6.952;2022-10-23T05:07:44;4.47;;;2.20;;
14754;SDS011;7469;50.906;6.952;2022-10-23T05:10:12;6.17;;;1.70;;
14754;SDS011;7469;50.906;6.952;2022-10-23T05:12:40;5.60;;;1.77;;
14754;SDS011;7469;50.906;6.952;2022-10-23T05:15:09;2.70;;;1.90;;
14754;SDS011;7469;50.906;6.952;2022-10-23T05:17:38;5.70;;;1.90;;
14754;SDS011;7469;50.906;6.952;2022-10-23T05:20:12;4.17;;;1.90;;
14754;SDS011;7469;50.906;6.952;2022-10-23T05:22:43;6.07;;;2.00;;
14754;SDS011;7469;50.906;6.952;2022-10-23T05:25:13;8.10;;;2.03;;
14754;SDS011;7469;50.906;6.952;2022-10-23T05:27:42;2.47;;;1.83;;
14754;SDS011;7469;50.906;6.952;2022-10-23T05:30:12;5.67;;;1.97;;
14754;SDS011;7469;50.906;6.952;2022-10-23T05:32:40;6.17;;;2.30;;
14754;SDS011;7469;50.906;6.952;2022-10-23T05:35:10;6.40;;;1.97;;
14754;SDS011;7469;50.906;6.952;2022-10-23T05:37:41;2.50;;;1.80;;
14754;SDS011;7469;50.906;6.952;2022-10-23T05:40:11;7.17;;;2.13;;
14754;SDS011;7469;50.906;6.952;2022-10-23T05:42:39;2.63;;;1.97;;
14754;SDS011;7469;50.906;6.952;2022-10-23T05:45:08;5.57;;;2.27;;
14754;SDS011;7469;50.906;6.952;2022-10-23T05:47:38;4.37;;;1.70;;
14754;SDS011;7469;50.906;6.952;2022-10-23T05:50:06;4.80;;;1.83;;
14754;SDS011;7469;50.906;6.952;2022-10-23T05:52:34;4.40;;;1.93;;
14754;SDS011;7469;50.906;6.952;2022-10-23T05:55:02;4.87;;;2.10;;
14754;SDS011;7469;50.906;6.952;2022-10-23T05:57:31;3.37;;;1.90;;
14754;SDS011;7469;50.906;6.952;2022-10-23T05:59:59;2.90;;;1.60;;
14754;SDS011;7469;50.906;6.952;2022-10-23T06:02:27;2.43;;;2.00;;
14754;SDS011;7469;50.906;6.952;2022-10-23T06:04:56;4.70;;;1.80;;
14754;SDS011;7469;50.906;6.952;2022-10-23T06:07:26;3.97;;;1.77;;
14754;SDS011;7469;50.906;6.952;2022-10-23T06:10:00;5.47;;;1.90;;
14754;SDS011;7469;50.906;6.952;2022-10-23T06:12:28;6.83;;;1.87;;
14754;SDS011;7469;50.906;6.952;2022-10-23T06:14:57;4.10;;;1.80;;
14754;SDS011;7469;50.906;6.952;2022-10-23T06:17:25;5.43;;;2.00;;
14754;SDS011;7469;50.906;6.952;2022-10-23T06:19:54;8.37;;;2.07;;
14754;SDS011;7469;50.906;6.952;2022-10-23T06:22:28;2.33;;;1.80;;
14754;SDS011;7469;50.906;6.952;2022-10-23T06:24:56;5.30;;;2.00;;
14754;SDS011;7469;50.906;6.952;2022-10-23T06:27:24;5.90;;;2.17;;
14754;SDS011;7469;50.906;6.952;2022-10-23T06:29:52;4.93;;;1.87;;
14754;SDS011;7469;50.906;6.952;2022-10-23T06:32:20;3.60;;;1.93;;
14754;SDS011;7469;50.906;6.952;2022-10-23T06:34:48;4.37;;;2.00;;
14754;SDS011;7469;50.906;6.952;2022-10-23T06:37:16;4.80;;;2.03;;
14754;SDS011;7469;50.906;6.952;2022-10-23T06:39:45;5.63;;;1.60;;
14754;SDS011;7469;50.906;6.952;2022-10-23T06:42:13;4.97;;;2.10;;
14754;SDS011;7469;50.906;6.952;2022-10-23T06:44:41;7.83;;;1.83;;
14754;SDS011;7469;50.906;6.952;2022-10-23T06:47:09;2.37;;;1.67;;
14754;SDS011;7469;50.906;6.952;2022-10-23T06:49:39;9.70;;;2.10;;
14754;SDS011;7469;50.906;6.952;2022-10-23T06:52:07;9.57;;;1.97;;
14754;SDS011;7469;50.906;6.952;2022-10-23T06:54:49;4.87;;;1.97;;
14754;SDS011;7469;50.906;6.952;2022-10-23T06:57:17;5.83;;;1.97;;
14754;SDS011;7469;50.906;6.952;2022-10-23T06:59:45;6.87;;;2.33;;
14754;SDS011;7469;50.906;6.952;2022-10-23T07:02:13;5.93;;;2.00;;
14754;SDS011;7469;50.906;6.952;2022-10-23T07:04:41;6.23;;;1.97;;
14754;SDS011;7469;50.906;6.952;2022-10-23T07:07:09;9.87;;;1.90;;
14754;SDS011;7469;50.906;6.952;2022-10-23T07:09:37;6.77;;;1.83;;
14754;SDS011;7469;50.906;6.952;2022-10-23T07:12:06;6.13;;;2.40;;
14754;SDS011;7469;50.906;6.952;2022-10-23T07:14:35;4.90;;;1.93;;
14754;SDS011;7469;50.906;6.952;2022-10-23T07:17:03;4.37;;;2.37;;
14754;SDS011;7469;50.906;6.952;2022-10-23T07:19:31;7.60;;;2.00;;
14754;SDS011;7469;50.906;6.952;2022-10-23T07:21:59;4.97;;;2.10;;
14754;SDS011;7469;50.906;6.952;2022-10-23T07:24:27;3.17;;;2.10;;
14754;SDS011;7469;50.906;6.952;2022-10-23T07:26:56;4.63;;;1.90;;
14754;SDS011;7469;50.906;6.952;2022-10-23T07:29:26;5.77;;;1.93;;
14754;SDS011;7469;50.906;6.952;2022-10-23T07:31:56;4.20;;;2.00;;
14754;SDS011;7469;50.906;6.952;2022-10-23T07:34:26;6.27;;;2.30;;
14754;SDS011;7469;50.906;6.952;2022-10-23T07:36:54;9.60;;;2.17;;
14754;SDS011;7469;50.906;6.952;2022-10-23T07:39:22;3.40;;;1.87;;
14754;SDS011;7469;50.906;6.952;2022-10-23T07:41:50;6.53;;;1.80;;
14754;SDS011;7469;50.906;6.952;2022-10-23T07:44:18;4.73;;;2.10;;
14754;SDS011;7469;50.906;6.952;2022-10-23T07:46:52;4.80;;;2.10;;
14754;SDS011;7469;50.906;6.952;2022-10-23T07:49:20;4.27;;;1.80;;
14754;SDS011;7469;50.906;6.952;2022-10-23T07:51:48;4.70;;;2.13;;
14754;SDS011;7469;50.906;6.952;2022-10-23T07:54:18;5.43;;;1.90;;
14754;SDS011;7469;50.906;6.952;2022-10-23T07:56:45;4.10;;;1.87;;
14754;SDS011;7469;50.906;6.952;2022-10-23T07:59:13;3.83;;;2.10;;
14754;SDS011;7469;50.906;6.952;2022-10-23T08:01:41;8.77;;;1.93;;
14754;SDS011;7469;50.906;6.952;2022-10-23T08:04:12;4.57;;;2.10;;
14754;SDS011;7469;50.906;6.952;2022-10-23T08:06:40;2.10;;;1.90;;
14754;SDS011;7469;50.906;6.952;2022-10-23T08:09:08;6.33;;;2.03;;
14754;SDS011;7469;50.906;6.952;2022-10-23T08:11:36;3.00;;;2.13;;
14754;SDS011;7469;50.906;6.952;2022-10-23T08:14:04;4.23;;;2.10;;
14754;SDS011;7469;50.906;6.952;2022-10-23T08:16:34;3.63;;;1.87;;
14754;SDS011;7469;50.906;6.952;2022-10-23T08:19:03;6.87;;;1.90;;
14754;SDS011;7469;50.906;6.952;2022-10-23T08:21:33;4.30;;;2.00;;
14754;SDS011;7469;50.906;6.952;2022-10-23T08:24:02;8.73;;;1.80;;
14754;SDS011;7469;50.906;6.952;2022-10-23T08:26:30;3.67;;;1.70;;
14754;SDS011;7469;50.906;6.952;2022-10-23T08:28:58;6.97;;;2.13;;
14754;SDS011;7469;50.906;6.952;2022-10-23T08:31:26;5.27;;;1.90;;
14754;SDS011;7469;50.906;6.952;2022-10-23T08:33:54;5.23;;;1.90;;
14754;SDS011;7469;50.906;6.952;2022-10-23T08:36:24;2.03;;;1.60;;
14754;SDS011;7469;50.906;6.952;2022-10-23T08:38:55;3.80;;;2.10;;
14754;SDS011;7469;50.906;6.952;2022-10-23T08:41:24;7.30;;;2.13;;
14754;SDS011;7469;50.906;6.952;2022-10-23T08:43:59;3.83;;;2.00;;
14754;SDS011;7469;50.906;6.952;2022-10-23T08:46:33;5.23;;;1.70;;
14754;SDS011;7469;50.906;6.952;2022-10-23T08:49:16;4.43;;;1.90;;
14754;SDS011;7469;50.906;6.952;2022-10-23T08:51:53;2.63;;;1.90;;
14754;SDS011;7469;50.906;6.952;2022-10-23T08:54:25;4.20;;;1.90;;
14754;SDS011;7469;50.906;6.952;2022-10-23T08:57:01;2.93;;;1.80;;
14754;SDS011;7469;50.906;6.952;2022-10-23T08:59:36;5.97;;;1.83;;
14754;SDS011;7469;50.906;6.952;2022-10-23T09:02:12;2.50;;;1.63;;
14754;SDS011;7469;50.906;6.952;2022-10-23T09:04:45;3.93;;;1.83;;
14754;SDS011;7469;50.906;6.952;2022-10-23T09:07:19;1.97;;;1.60;;
14754;SDS011;7469;50.906;6.952;2022-10-23T09:09:59;3.13;;;1.70;;
14754;SDS011;7469;50.906;6.952;2022-10-23T09:12:32;3.13;;;1.60;;
14754;SDS011;7469;50.906;6.952;2022-10-23T09:15:06;6.50;;;1.80;;
14754;SDS011;7469;50.906;6.952;2022-10-23T09:17:44;2.07;;;1.63;;
14754;SDS011;7469;50.906;6.952;2022-10-23T09:20:17;3.27;;;1.60;;
14754;SDS011;7469;50.906;6.952;2022-10-23T09:22:47;3.07;;;1.50;;
14754;SDS011;7469;50.906;6.952;2022-10-23T09:25:21;6.70;;;1.67;;
14754;SDS011;7469;50.906;6.952;2022-10-23T09:27:52;2.20;;;1.67;;
14754;SDS011;7469;50.906;6.952;2022-10-23T09:30:26;3.93;;;1.50;;
14754;SDS011;7469;50.906;6.952;2022-10-23T09:32:55;4.30;;;1.60;;
14754;SDS011;7469;50.906;6.952;2022-10-23T09:35:24;2.63;;;1.67;;
14754;SDS011;7469;50.906;6.952;2022-10-23T09:37:55;2.57;;;1.60;;
14754;SDS011;7469;50.906;6.952;2022-10-23T09:40:30;2.53;;;1.43;;
14754;SDS011;7469;50.906;6.952;2022-10-23T09:43:03;3.00;;;1.50;;
14754;SDS011;7469;50.906;6.952;2022-10-23T09:45:40;9.50;;;1.80;;
14754;SDS011;7469;50.906;6.952;2022-10-23T09:48:11;2.67;;;1.57;;
14754;SDS011;7469;50.906;6.952;2022-10-23T09:50:50;5.70;;;1.50;;
14754;SDS011;7469;50.906;6.952;2022-10-23T09:53:30;3.50;;;1.43;;
14754;SDS011;7469;50.906;6.952;2022-10-23T09:56:02;5.40;;;1.60;;
14754;SDS011;7469;50.906;6.952;2022-10-23T09:58:38;5.47;;;2.20;;
14754;SDS011;7469;50.906;6.952;2022-10-23T10:01:21;2.53;;;2.03;;
14754;SDS011;7469;50.906;6.952;2022-10-23T10:03:50;4.60;;;1.70;;
14754;SDS011;7469;50.906;6.952;2022-10-23T10:06:23;2.37;;;1.40;;
14754;SDS011;7469;50.906;6.952;2022-10-23T10:08:53;5.07;;;1.47;;
14754;SDS011;7469;50.906;6.952;2022-10-23T10:11:26;2.00;;;1.43;;
14754;SDS011;7469;50.906;6.952;2022-10-23T10:14:05;2.97;;;1.20;;
14754;SDS011;7469;50.906;6.952;2022-10-23T10:16:49;2.17;;;1.20;;
14754;SDS011;7469;50.906;6.952;2022-10-23T10:19:25;2.17;;;1.27;;
14754;SDS011;7469;50.906;6.952;2022-10-23T10:22:04;5.73;;;1.73;;
14754;SDS011;7469;50.906;6.952;2022-10-23T10:24:45;6.37;;;1.50;;
14754;SDS011;7469;50.906;6.952;2022-10-23T10:27:23;4.93;;;1.20;;
14754;SDS011;7469;50.906;6.952;2022-10-23T10:30:02;3.50;;;1.20;;
14754;SDS011;7469;50.906;6.952;2022-10-23T10:32:36;2.27;;;1.20;;
14754;SDS011;7469;50.906;6.952;2022-10-23T10:35:16;4.80;;;1.73;;
14754;SDS011;7469;50.906;6.952;2022-10-23T10:40:41;5.40;;;1.27;;
14754;SDS011;7469;50.906;6.952;2022-10-23T10:43:19;1.87;;;1.27;;
14754;SDS011;7469;50.906;6.952;2022-10-23T10:45:56;3.47;;;1.60;;
14754;SDS011;7469;50.906;6.952;2022-10-23T10:48:38;1.67;;;1.50;;
14754;SDS011;7469;50.906;6.952;2022-10-23T10:51:12;3.60;;;1.50;;
14754;SDS011;7469;50.906;6.952;2022-10-23T10:53:51;2.07;;;1.30;;
14754;SDS011;7469;50.906;6.952;2022-10-23T10:56:30;9.40;;;1.63;;
14754;SDS011;7469;50.906;6.952;2022-10-23T10:59:03;3.83;;;1.47;;
14754;SDS011;7469;50.906;6.952;2022-10-23T11:01:39;3.23;;;1.60;;
14754;SDS011;7469;50.906;6.952;2022-10-23T11:04:13;4.63;;;1.30;;
14754;SDS011;7469;50.906;6.952;2022-10-23T11:06:50;2.47;;;1.53;;
14754;SDS011;7469;50.906;6.952;2022-10-23T11:09:20;2.40;;;1.47;;
14754;SDS011;7469;50.906;6.952;2022-10-23T11:11:51;2.30;;;1.33;;
14754;SDS011;7469;50.906;6.952;2022-10-23T11:14:21;4.13;;;1.60;;
14754;SDS011;7469;50.906;6.952;2022-10-23T11:16:50;1.60;;;1.43;;
14754;SDS011;7469;50.906;6.952;2022-10-23T11:19:29;4.17;;;1.63;;
14754;SDS011;7469;50.906;6.952;2022-10-23T11:22:03;4.60;;;1.20;;
14754;SDS011;7469;50.906;6.952;2022-10-23T11:24:50;2.80;;;1.80;;
14754;SDS011;7469;50.906;6.952;2022-10-23T11:27:32;5.00;;;1.90;;
14754;SDS011;7469;50.906;6.952;2022-10-23T11:30:16;4.57;;;1.40;;
14754;SDS011;7469;50.906;6.952;2022-10-23T11:33:01;3.20;;;1.53;;
14754;SDS011;7469;50.906;6.952;2022-10-23T11:36:11;2.90;;;1.50;;
14754;SDS011;7469;50.906;6.952;2022-10-23T11:38:42;3.43;;;1.60;;
14754;SDS011;7469;50.906;6.952;2022-10-23T11:41:16;4.10;;;1.30;;
14754;SDS011;7469;50.906;6.952;2022-10-23T11:43:52;2.20;;;1.63;;
14754;SDS011;7469;50.906;6.952;2022-10-23T11:46:30;4.90;;;1.80;;
14754;SDS011;7469;50.906;6.952;2022-10-23T11:49:00;2.73;;;1.43;;
14754;SDS011;7469;50.906;6.952;2022-10-23T11:51:32;1.97;;;1.20;;
14754;SDS011;7469;50.906;6.952;2022-10-23T11:54:20;3.67;;;1.30;;
14754;SDS011;7469;50.906;6.952;2022-10-23T11:56:54;7.73;;;1.60;;
14754;SDS011;7469;50.906;6.952;2022-10-23T11:59:38;3.20;;;1.33;;
14754;SDS011;7469;50.906;6.952;2022-10-23T12:02:28;1.70;;;1.43;;
14754;SDS011;7469;50.906;6.952;2022-10-23T12:05:00;4.33;;;1.60;;
14754;SDS011;7469;50.906;6.952;2022-10-23T12:07:33;3.77;;;1.60;;
14754;SDS011;7469;50.906;6.952;2022-10-23T12:10:03;3.37;;;1.70;;
14754;SDS011;7469;50.906;6.952;2022-10-23T12:12:33;2.47;;;1.63;;
14754;SDS011;7469;50.906;6.952;2022-10-23T12:15:07;3.10;;;1.67;;
14754;SDS011;7469;50.906;6.952;2022-10-23T12:17:48;2.30;;;1.50;;
14754;SDS011;7469;50.906;6.952;2022-10-23T12:20:20;5.83;;;1.67;;
14754;SDS011;7469;50.906;6.952;2022-10-23T12:23:02;3.27;;;1.53;;
14754;SDS011;7469;50.906;6.952;2022-10-23T12:25:43;4.33;;;1.60;;
14754;SDS011;7469;50.906;6.952;2022-10-23T12:28:29;3.10;;;1.27;;
14754;SDS011;7469;50.906;6.952;2022-10-23T12:31:07;3.63;;;1.60;;
14754;SDS011;7469;50.906;6.952;2022-10-23T12:33:48;2.27;;;1.80;;
14754;SDS011;7469;50.906;6.952;2022-10-23T12:36:30;2.97;;;1.80;;
14754;SDS011;7469;50.906;6.952;2022-10-23T12:39:24;3.07;;;1.73;;
14754;SDS011;7469;50.906;6.952;2022-10-23T12:41:53;3.20;;;1.63;;
14754;SDS011;7469;50.906;6.952;2022-10-23T12:44:21;4.50;;;1.83;;
14754;SDS011;7469;50.906;6.952;2022-10-23T12:46:52;1.87;;;1.63;;
14754;SDS011;7469;50.906;6.952;2022-10-23T12:49:24;4.70;;;2.00;;
14754;SDS011;7469;50.906;6.952;2022-10-23T12:51:53;2.80;;;1.60;;
14754;SDS011;7469;50.906;6.952;2022-10-23T12:54:22;3.53;;;1.93;;
14754;SDS011;7469;50.906;6.952;2022-10-23T12:56:50;1.60;;;1.50;;
14754;SDS011;7469;50.906;6.952;2022-10-23T12:59:19;3.67;;;1.50;;
14754;SDS011;7469;50.906;6.952;2022-10-23T13:01:51;3.83;;;1.53;;
14754;SDS011;7469;50.906;6.952;2022-10-23T13:04:24;4.13;;;1.47;;
14754;SDS011;7469;50.906;6.952;2022-10-23T13:06:55;4.20;;;1.50;;
14754;SDS011;7469;50.906;6.952;2022-10-23T13:09:27;2.13;;;1.43;;
14754;SDS011;7469;50.906;6.952;2022-10-23T13:11:57;5.50;;;1.70;;
14754;SDS011;7469;50.906;6.952;2022-10-23T13:14:28;4.40;;;1.70;;
14754;SDS011;7469;50.906;6.952;2022-10-23T13:16:59;6.13;;;1.77;;
14754;SDS011;7469;50.906;6.952;2022-10-23T13:19:29;2.00;;;1.50;;
14754;SDS011;7469;50.906;6.952;2022-10-23T13:21:58;2.40;;;1.83;;
14754;SDS011;7469;50.906;6.952;2022-10-23T13:24:27;4.50;;;1.77;;
14754;SDS011;7469;50.906;6.952;2022-10-23T13:26:57;3.73;;;2.07;;
14754;SDS011;7469;50.906;6.952;2022-10-23T13:29:25;6.10;;;1.87;;
14754;SDS011;7469;50.906;6.952;2022-10-23T13:31:55;3.97;;;2.03;;
14754;SDS011;7469;50.906;6.952;2022-10-23T13:34:25;8.00;;;2.07;;
14754;SDS011;7469;50.906;6.952;2022-10-23T13:36:56;2.80;;;1.53;;
14754;SDS011;7469;50.906;6.952;2022-10-23T13:39:26;5.60;;;1.93;;
14754;SDS011;7469;50.906;6.952;2022-10-23T13:41:57;5.57;;;1.90;;
14754;SDS011;7469;50.906;6.952;2022-10-23T13:44:31;3.90;;;1.70;;
14754;SDS011;7469;50.906;6.952;2022-10-23T13:47:02;3.83;;;2.03;;
14754;SDS011;7469;50.906;6.952;2022-10-23T13:49:31;7.63;;;2.03;;
14754;SDS011;7469;50.906;6.952;2022-10-23T13:52:00;3.73;;;1.50;;
14754;SDS011;7469;50.906;6.952;2022-10-23T13:54:29;4.10;;;1.50;;
14754;SDS011;7469;50.906;6.952;2022-10-23T13:56:57;5.33;;;2.07;;
14754;SDS011;7469;50.906;6.952;2022-10-23T13:59:24;8.23;;;1.83;;
14754;SDS011;7469;50.906;6.952;2022-10-23T14:01:52;4.67;;;2.20;;
14754;SDS011;7469;50.906;6.952;2022-10-23T14:04:21;3.03;;;1.60;;
14754;SDS011;7469;50.906;6.952;2022-10-23T14:06:49;3.90;;;1.87;;
14754;SDS011;7469;50.906;6.952;2022-10-23T14:09:24;5.13;;;1.67;;
14754;SDS011;7469;50.906;6.952;2022-10-23T14:11:52;9.67;;;1.90;;
14754;SDS011;7469;50.906;6.952;2022-10-23T14:14:20;8.43;;;1.90;;
14754;SDS011;7469;50.906;6.952;2022-10-23T14:16:48;8.03;;;1.80;;
14754;SDS011;7469;50.906;6.952;2022-10-23T14:19:17;2.40;;;1.57;;
14754;SDS011;7469;50.906;6.952;2022-10-23T14:21:45;7.90;;;1.80;;
14754;SDS011;7469;50.906;6.952;2022-10-23T14:24:13;5.27;;;1.87;;
14754;SDS011;7469;50.906;6.952;2022-10-23T14:26:42;2.13;;;1.37;;
14754;SDS011;7469;50.906;6.952;2022-10-23T14:29:11;2.20;;;1.40;;
14754;SDS011;7469;50.906;6.952;2022-10-23T14:31:48;6.10;;;1.90;;
14754;SDS011;7469;50.906;6.952;2022-10-23T14:34:16;5.47;;;2.23;;
14754;SDS011;7469;50.906;6.952;2022-10-23T14:36:44;5.63;;;2.80;;
14754;SDS011;7469;50.906;6.952;2022-10-23T14:39:29;4.67;;;1.73;;
14754;SDS011;7469;50.906;6.952;2022-10-23T14:41:58;3.97;;;1.53;;
14754;SDS011;7469;50.906;6.952;2022-10-23T14:44:26;6.97;;;1.90;;
14754;SDS011;7469;50.906;6.952;2022-10-23T14:46:54;3.87;;;1.67;;
14754;SDS011;7469;50.906;6.952;2022-10-23T14:49:23;4.73;;;2.00;;
14754;SDS011;7469;50.906;6.952;2022-10-23T14:51:51;8.07;;;1.77;;
14754;SDS011;7469;50.906;6.952;2022-10-23T14:54:19;5.57;;;1.83;;
14754;SDS011;7469;50.906;6.952;2022-10-23T14:56:47;4.47;;;2.30;;
14754;SDS011;7469;50.906;6.952;2022-10-23T14:59:17;7.60;;;2.17;;
14754;SDS011;7469;50.906;6.952;2022-10-23T15:01:45;3.63;;;1.80;;
14754;SDS011;7469;50.906;6.952;2022-10-23T15:04:14;5.73;;;1.70;;
14754;SDS011;7469;50.906;6.952;2022-10-23T15:06:42;3.53;;;2.07;;
14754;SDS011;7469;50.906;6.952;2022-10-23T15:09:11;5.13;;;1.90;;
14754;SDS011;7469;50.906;6.952;2022-10-23T15:11:39;4.57;;;1.60;;
14754;SDS011;7469;50.906;6.952;2022-10-23T15:14:07;3.80;;;1.70;;
14754;SDS011;7469;50.906;6.952;2022-10-23T15:16:37;2.90;;;1.73;;
14754;SDS011;7469;50.906;6.952;2022-10-23T15:19:07;2.80;;;2.07;;
14754;SDS011;7469;50.906;6.952;2022-10-23T15:21:42;3.40;;;2.00;;
14754;SDS011;7469;50.906;6.952;2022-10-23T15:24:10;1.77;;;1.63;;
14754;SDS011;7469;50.906;6.952;2022-10-23T15:26:38;5.73;;;1.77;;
14754;SDS011;7469;50.906;6.952;2022-10-23T15:29:08;10.17;;;2.53;;